sensor_id;sensor_type;location;lat;lon;timestamp;temperature;humidity
3794;DHT22;1912;51.358;12.282;2022-12-18T04:46:19;-8.80;1.00
3794;DHT22;1912;51.358;12.282;2022-12-18T04:48:45;-8.80;1.00
3794;DHT22;1912;51.358;12.282;2022-12-18T04:51:12;-8.80;1.00
3794;DHT22;1912;51.358;12.282;2022-12-18T04:53:37;-8.80;1.00
3794;DHT22;1912;51.358;12.282;2022-12-18T04:56:08;-8.80;1.00
3794;DHT22;1912;51.358;12.282;2022-12-18T04:58:36;-8.80;1.00
3794;DHT22;1912;51.358;12.282;2022-12-18T05:01:03;-8.80;1.00
3794;DHT22;1912;51.358;12.282;2022-12-18T05:03:29;-8.70;1.00
3794;DHT22;1912;51.358;12.282;2022-12-18T05:05:55;-8.70;1.00
3794;DHT22;1912;51.358;12.282;2022-12-18T05:08:21;-8.70;1.00
3794;DHT22;1912;51.358;12.282;2022-12-18T05:10:46;-8.60;1.00
3794;DHT22;1912;51.358;12.282;2022-12-18T05:13:12;-8.60;1.00
3794;DHT22;1912;51.358;12.282;2022-12-18T05:15:38;-8.60;1.00
3794;DHT22;1912;51.358;12.282;2022-12-18T05:18:04;-8.50;1.00
3794;DHT22;1912;51.358;12.282;2022-12-18T05:20:30;-8.50;1.00
3794;DHT22;1912;51.358;12.282;2022-12-18T05:22:56;-8.50;1.00
3794;DHT22;1912;51.358;12.282;2022-12-18T05:25:22;-8.50;1.00
3794;DHT22;1912;51.358;12.282;2022-12-18T05:27:48;-8.50;1.00
3794;DHT22;1912;51.358;12.282;2022-12-18T05:30:15;-8.50;1.00
3794;DHT22;1912;51.358;12.282;2022-12-18T05:32:41;-8.50;1.00
3794;DHT22;1912;51.358;12.282;2022-12-18T05:35:09;-8.50;1.00
3794;DHT22;1912;51.358;12.282;2022-12-18T05:37:35;-8.50;1.00
3794;DHT22;1912;51.358;12.282;2022-12-18T05:40:02;-8.50;1.00
3794;DHT22;1912;51.358;12.282;2022-12-18T05:42:29;-8.50;1.00
3794;DHT22;1912;51.358;12.282;2022-12-18T05:44:55;-8.50;1.00
3794;DHT22;1912;51.358;12.282;2022-12-18T05:47:21;-8.40;1.00
3794;DHT22;1912;51.358;12.282;2022-12-18T05:49:46;-8.50;1.00
3794;DHT22;1912;51.358;12.282;2022-12-18T05:52:12;-8.40;1.00
3794;DHT22;1912;51.358;12.282;2022-12-18T05:54:38;-8.40;1.00
3794;DHT22;1912;51.358;12.282;2022-12-18T05:57:04;-8.40;1.00
3794;DHT22;1912;51.358;12.282;2022-12-18T05:59:30;-8.40;1.00
3794;DHT22;1912;51.358;12.282;2022-12-18T06:01:56;-8.50;1.00
3794;DHT22;1912;51.358;12.282;2022-12-18T06:04:21;-8.50;1.00
3794;DHT22;1912;51.358;12.282;2022-12-18T06:06:47;-8.50;1.00
3794;DHT22;1912;51.358;12.282;2022-12-18T06:09:13;-8.40;1.00
3794;DHT22;1912;51.358;12.282;2022-12-18T06:11:39;-8.40;1.00
3794;DHT22;1912;51.358;12.282;2022-12-18T06:14:05;-8.40;1.00
3794;DHT22;1912;51.358;12.282;2022-12-18T06:16:32;-8.40;1.00
3794;DHT22;1912;51.358;12.282;2022-12-18T06:19:02;-8.40;1.00
3794;DHT22;1912;51.358;12.282;2022-12-18T06:21:29;-8.40;1.00
3794;DHT22;1912;51.358;12.282;2022-12-18T06:23:55;-8.40;1.00
3794;DHT22;1912;51.358;12.282;2022-12-18T06:26:21;-8.40;1.00
3794;DHT22;1912;51.358;12.282;2022-12-18T06:28:47;-8.50;1.00
3794;DHT22;1912;51.358;12.282;2022-12-18T06:31:13;-8.50;1.00
3794;DHT22;1912;51.358;12.282;2022-12-18T06:33:39;-8.50;1.00
3794;DHT22;1912;51.358;12.282;2022-12-18T06:36:10;-8.60;1.00
3794;DHT22;1912;51.358;12.282;2022-12-18T06:38:38;-8.50;1.00
3794;DHT22;1912;51.358;12.282;2022-12-18T06:41:09;-8.60;1.00
3794;DHT22;1912;51.358;12.282;2022-12-18T06:43:37;-8.60;1.00
3794;DHT22;1912;51.358;12.282;2022-12-18T06:46:03;-8.60;1.00
3794;DHT22;1912;51.358;12.282;2022-12-18T06:48:29;-8.60;1.00
3794;DHT22;1912;51.358;12.282;2022-12-18T06:50:56;-8.60;1.00
3794;DHT22;1912;51.358;12.282;2022-12-18T06:53:21;-8.50;1.00
3794;DHT22;1912;51.358;12.282;2022-12-18T06:55:48;-8.60;1.00
3794;DHT22;1912;51.358;12.282;2022-12-18T06:58:14;-8.60;1.00
3794;DHT22;1912;51.358;12.282;2022-12-18T07:00:40;-8.60;1.00
3794;DHT22;1912;51.358;12.282;2022-12-18T07:03:05;-8.60;1.00
3794;DHT22;1912;51.358;12.282;2022-12-18T07:05:31;-8.60;1.00
3794;DHT22;1912;51.358;12.282;2022-12-18T07:07:58;-8.60;1.00
3794;DHT22;1912;51.358;12.282;2022-12-18T07:10:24;-8.60;1.00
3794;DHT22;1912;51.358;12.282;2022-12-18T07:12:50;-8.60;1.00
3794;DHT22;1912;51.358;12.282;2022-12-18T07:15:16;-8.50;1.00
3794;DHT22;1912;51.358;12.282;2022-12-18T07:17:42;-8.60;1.00
3794;DHT22;1912;51.358;12.282;2022-12-18T07:20:08;-8.60;1.00
3794;DHT22;1912;51.358;12.282;2022-12-18T07:22:34;-8.60;1.00
3794;DHT22;1912;51.358;12.282;2022-12-18T07:25:00;-8.60;1.00
3794;DHT22;1912;51.358;12.282;2022-12-18T07:27:25;-8.60;1.00
3794;DHT22;1912;51.358;12.282;2022-12-18T07:29:51;-8.50;1.00
3794;DHT22;1912;51.358;12.282;2022-12-18T07:32:17;-8.60;1.00
3794;DHT22;1912;51.358;12.282;2022-12-18T07:34:42;-8.50;1.00
3794;DHT22;1912;51.358;12.282;2022-12-18T07:37:08;-8.50;1.00
3794;DHT22;1912;51.358;12.282;2022-12-18T07:39:34;-8.50;1.00
3794;DHT22;1912;51.358;12.282;2022-12-18T07:41:59;-8.50;1.00
3794;DHT22;1912;51.358;12.282;2022-12-18T07:44:43;-8.40;1.00
3794;DHT22;1912;51.358;12.282;2022-12-18T07:47:09;-8.30;1.00
3794;DHT22;1912;51.358;12.282;2022-12-18T07:49:35;-8.30;1.00
3794;DHT22;1912;51.358;12.282;2022-12-18T07:52:00;-8.10;1.00
3794;DHT22;1912;51.358;12.282;2022-12-18T07:54:27;-8.00;1.00
3794;DHT22;1912;51.358;12.282;2022-12-18T07:56:52;-8.00;1.00
3794;DHT22;1912;51.358;12.282;2022-12-18T07:59:18;-7.80;1.00
3794;DHT22;1912;51.358;12.282;2022-12-18T08:01:44;-7.70;1.00
3794;DHT22;1912;51.358;12.282;2022-12-18T08:04:10;-7.50;1.00
3794;DHT22;1912;51.358;12.282;2022-12-18T08:06:36;-7.30;1.00
3794;DHT22;1912;51.358;12.282;2022-12-18T08:09:01;-7.20;1.00
3794;DHT22;1912;51.358;12.282;2022-12-18T08:11:28;-7.10;1.00
3794;DHT22;1912;51.358;12.282;2022-12-18T08:13:55;-6.90;1.00
3794;DHT22;1912;51.358;12.282;2022-12-18T08:16:21;-6.90;1.00
3794;DHT22;1912;51.358;12.282;2022-12-18T08:18:48;-6.80;1.00
3794;DHT22;1912;51.358;12.282;2022-12-18T08:21:19;-6.60;1.00
3794;DHT22;1912;51.358;12.282;2022-12-18T08:23:50;-6.50;1.00
3794;DHT22;1912;51.358;12.282;2022-12-18T08:26:17;-6.40;1.00
3794;DHT22;1912;51.358;12.282;2022-12-18T08:28:43;-6.20;1.00
3794;DHT22;1912;51.358;12.282;2022-12-18T08:31:09;-6.10;1.00
3794;DHT22;1912;51.358;12.282;2022-12-18T08:33:36;-6.00;1.00
3794;DHT22;1912;51.358;12.282;2022-12-18T08:36:04;-5.70;1.00
3794;DHT22;1912;51.358;12.282;2022-12-18T08:38:31;-5.60;1.00
3794;DHT22;1912;51.358;12.282;2022-12-18T08:40:59;-5.50;1.00
3794;DHT22;1912;51.358;12.282;2022-12-18T08:43:26;-5.30;1.00
3794;DHT22;1912;51.358;12.282;2022-12-18T08:46:10;-5.30;1.00
3794;DHT22;1912;51.358;12.282;2022-12-18T08:48:36;-5.20;1.00
3794;DHT22;1912;51.358;12.282;2022-12-18T08:51:02;-4.90;1.00
3794;DHT22;1912;51.358;12.282;2022-12-18T08:53:28;-4.90;1.00
3794;DHT22;1912;51.358;12.282;2022-12-18T08:55:54;-4.80;1.00
3794;DHT22;1912;51.358;12.282;2022-12-18T08:58:21;-4.60;1.00
3794;DHT22;1912;51.358;12.282;2022-12-18T09:00:47;-4.60;1.00
3794;DHT22;1912;51.358;12.282;2022-12-18T09:03:18;-4.40;1.00
3794;DHT22;1912;51.358;12.282;2022-12-18T09:05:45;-4.50;1.00
3794;DHT22;1912;51.358;12.282;2022-12-18T09:08:12;-4.40;1.00
3794;DHT22;1912;51.358;12.282;2022-12-18T09:10:42;-4.60;1.00
3794;DHT22;1912;51.358;12.282;2022-12-18T09:13:10;-4.60;1.00
3794;DHT22;1912;51.358;12.282;2022-12-18T09:18:15;-4.50;1.00
3794;DHT22;1912;51.358;12.282;2022-12-18T09:20:42;-4.50;1.00
3794;DHT22;1912;51.358;12.282;2022-12-18T09:23:08;-4.60;1.00
3794;DHT22;1912;51.358;12.282;2022-12-18T09:25:34;-4.60;1.00
3794;DHT22;1912;51.358;12.282;2022-12-18T09:28:02;-4.80;1.00
3794;DHT22;1912;51.358;12.282;2022-12-18T09:30:29;-4.80;1.00
3794;DHT22;1912;51.358;12.282;2022-12-18T09:32:55;-4.80;1.00
3794;DHT22;1912;51.358;12.282;2022-12-18T09:35:21;-4.80;1.00
3794;DHT22;1912;51.358;12.282;2022-12-18T09:37:47;-4.80;1.00
3794;DHT22;1912;51.358;12.282;2022-12-18T09:40:16;-4.80;1.00
3794;DHT22;1912;51.358;12.282;2022-12-18T09:42:48;-4.60;1.00
3794;DHT22;1912;51.358;12.282;2022-12-18T09:45:18;-4.50;1.00
3794;DHT22;1912;51.358;12.282;2022-12-18T09:47:45;-4.40;1.00
3794;DHT22;1912;51.358;12.282;2022-12-18T09:50:32;-4.40;1.00
3794;DHT22;1912;51.358;12.282;2022-12-18T09:53:05;-4.40;1.00
3794;DHT22;1912;51.358;12.282;2022-12-18T09:55:38;-4.30;1.00
3794;DHT22;1912;51.358;12.282;2022-12-18T10:00:37;-4.20;1.00
3794;DHT22;1912;51.358;12.282;2022-12-18T10:03:09;-4.20;1.00
3794;DHT22;1912;51.358;12.282;2022-12-18T10:05:48;-4.10;1.00
3794;DHT22;1912;51.358;12.282;2022-12-18T10:11:24;-4.20;1.00
3794;DHT22;1912;51.358;12.282;2022-12-18T10:17:28;-4.20;1.00
3794;DHT22;1912;51.358;12.282;2022-12-18T10:26:09;-4.10;1.00
3794;DHT22;1912;51.358;12.282;2022-12-18T10:28:37;-4.00;1.00
3794;DHT22;1912;51.358;12.282;2022-12-18T10:31:24;-4.00;1.00
3794;DHT22;1912;51.358;12.282;2022-12-18T10:33:51;-4.10;1.00
3794;DHT22;1912;51.358;12.282;2022-12-18T10:36:20;-4.00;1.00
3794;DHT22;1912;51.358;12.282;2022-12-18T10:38:45;-4.00;1.00
3794;DHT22;1912;51.358;12.282;2022-12-18T10:43:44;-4.00;1.00
3794;DHT22;1912;51.358;12.282;2022-12-18T10:51:39;-4.00;1.00
3794;DHT22;1912;51.358;12.282;2022-12-18T10:54:20;-4.00;1.00
3794;DHT22;1912;51.358;12.282;2022-12-18T10:56:48;-4.00;1.00
3794;DHT22;1912;51.358;12.282;2022-12-18T10:59:16;-4.00;1.00
3794;DHT22;1912;51.358;12.282;2022-12-18T11:01:52;-4.10;1.00
3794;DHT22;1912;51.358;12.282;2022-12-18T11:04:29;-4.10;1.00
3794;DHT22;1912;51.358;12.282;2022-12-18T11:07:05;-4.00;1.00
3794;DHT22;1912;51.358;12.282;2022-12-18T11:09:36;-4.00;1.00
3794;DHT22;1912;51.358;12.282;2022-12-18T11:12:19;-4.00;1.00
3794;DHT22;1912;51.358;12.282;2022-12-18T11:14:52;-3.90;1.00
3794;DHT22;1912;51.358;12.282;2022-12-18T11:17:28;-4.00;1.00
3794;DHT22;1912;51.358;12.282;2022-12-18T11:20:05;-4.00;1.00
3794;DHT22;1912;51.358;12.282;2022-12-18T11:22:35;-3.90;1.00
3794;DHT22;1912;51.358;12.282;2022-12-18T11:27:38;-3.90;1.00
3794;DHT22;1912;51.358;12.282;2022-12-18T11:30:35;-3.90;1.00
3794;DHT22;1912;51.358;12.282;2022-12-18T11:33:20;-3.90;1.00
3794;DHT22;1912;51.358;12.282;2022-12-18T11:35:53;-3.90;1.00
3794;DHT22;1912;51.358;12.282;2022-12-18T11:38:35;-3.90;1.00
3794;DHT22;1912;51.358;12.282;2022-12-18T11:43:38;-4.00;1.00
3794;DHT22;1912;51.358;12.282;2022-12-18T11:46:23;-4.00;1.00
3794;DHT22;1912;51.358;12.282;2022-12-18T11:51:54;-3.90;1.00
3794;DHT22;1912;51.358;12.282;2022-12-18T11:54:38;-3.90;1.00
3794;DHT22;1912;51.358;12.282;2022-12-18T11:57:07;-3.80;1.00
3794;DHT22;1912;51.358;12.282;2022-12-18T12:19:36;-3.30;1.00
3794;DHT22;1912;51.358;12.282;2022-12-18T12:22:49;-3.30;1.00
3794;DHT22;1912;51.358;12.282;2022-12-18T12:25:29;-3.20;1.00
3794;DHT22;1912;51.358;12.282;2022-12-18T12:31:20;-3.20;1.00
3794;DHT22;1912;51.358;12.282;2022-12-18T12:34:18;-3.10;1.00
3794;DHT22;1912;51.358;12.282;2022-12-18T12:37:07;-3.10;1.00
3794;DHT22;1912;51.358;12.282;2022-12-18T12:39:42;-3.10;1.00
3794;DHT22;1912;51.358;12.282;2022-12-18T12:42:18;-3.10;1.00
3794;DHT22;1912;51.358;12.282;2022-12-18T12:45:16;-3.10;1.00
3794;DHT22;1912;51.358;12.282;2022-12-18T12:47:48;-3.10;1.00
3794;DHT22;1912;51.358;12.282;2022-12-18T12:50:17;-3.10;1.00
3794;DHT22;1912;51.358;12.282;2022-12-18T12:52:50;-3.10;1.00
3794;DHT22;1912;51.358;12.282;2022-12-18T12:55:25;-3.10;1.00
3794;DHT22;1912;51.358;12.282;2022-12-18T13:07:13;-3.00;1.00
3794;DHT22;1912;51.358;12.282;2022-12-18T13:13:06;-3.00;1.00
3794;DHT22;1912;51.358;12.282;2022-12-18T13:15:48;-3.00;1.00
3794;DHT22;1912;51.358;12.282;2022-12-18T13:18:28;-3.00;1.00
3794;DHT22;1912;51.358;12.282;2022-12-18T13:26:34;-3.10;1.00
3794;DHT22;1912;51.358;12.282;2022-12-18T13:31:14;-3.20;1.00
3794;DHT22;1912;51.358;12.282;2022-12-18T13:36:44;-3.30;1.00
3794;DHT22;1912;51.358;12.282;2022-12-18T13:41:50;-3.40;1.00
3794;DHT22;1912;51.358;12.282;2022-12-18T13:45:00;-3.50;1.00
3794;DHT22;1912;51.358;12.282;2022-12-18T13:47:32;-3.60;1.00
3794;DHT22;1912;51.358;12.282;2022-12-18T13:50:23;-3.70;1.00
3794;DHT22;1912;51.358;12.282;2022-12-18T13:52:50;-3.80;1.00
3794;DHT22;1912;51.358;12.282;2022-12-18T13:55:19;-3.90;1.00
3794;DHT22;1912;51.358;12.282;2022-12-18T13:57:45;-4.00;1.00
3794;DHT22;1912;51.358;12.282;2022-12-18T14:00:28;-4.00;1.00
3794;DHT22;1912;51.358;12.282;2022-12-18T14:02:56;-4.10;1.00
3794;DHT22;1912;51.358;12.282;2022-12-18T14:07:48;-4.10;1.00
3794;DHT22;1912;51.358;12.282;2022-12-18T14:10:15;-4.10;1.00
3794;DHT22;1912;51.358;12.282;2022-12-18T14:12:45;-4.10;1.00
3794;DHT22;1912;51.358;12.282;2022-12-18T14:15:31;-4.20;1.00
3794;DHT22;1912;51.358;12.282;2022-12-18T14:18:36;-4.20;1.00
3794;DHT22;1912;51.358;12.282;2022-12-18T14:21:26;-4.20;1.00
3794;DHT22;1912;51.358;12.282;2022-12-18T14:26:43;-4.30;1.00
3794;DHT22;1912;51.358;12.282;2022-12-18T14:29:26;-4.30;1.00
3794;DHT22;1912;51.358;12.282;2022-12-18T14:32:12;-4.40;1.00
3794;DHT22;1912;51.358;12.282;2022-12-18T14:34:45;-4.40;1.00
3794;DHT22;1912;51.358;12.282;2022-12-18T14:37:14;-4.40;1.00
3794;DHT22;1912;51.358;12.282;2022-12-18T14:39:58;-4.40;1.00
3794;DHT22;1912;51.358;12.282;2022-12-18T14:42:26;-4.50;1.00
3794;DHT22;1912;51.358;12.282;2022-12-18T14:48:08;-4.60;1.00
3794;DHT22;1912;51.358;12.282;2022-12-18T14:50:39;-4.70;1.00
3794;DHT22;1912;51.358;12.282;2022-12-18T14:53:05;-4.80;1.00
3794;DHT22;1912;51.358;12.282;2022-12-18T14:55:31;-4.80;1.00
3794;DHT22;1912;51.358;12.282;2022-12-18T14:57:57;-4.80;1.00
3794;DHT22;1912;51.358;12.282;2022-12-18T15:00:24;-4.90;1.00
3794;DHT22;1912;51.358;12.282;2022-12-18T15:02:54;-4.90;1.00
3794;DHT22;1912;51.358;12.282;2022-12-18T15:05:31;-4.90;1.00
3794;DHT22;1912;51.358;12.282;2022-12-18T15:07:59;-5.00;1.00
3794;DHT22;1912;51.358;12.282;2022-12-18T15:10:27;-5.00;1.00
3794;DHT22;1912;51.358;12.282;2022-12-18T15:20:43;-5.10;1.00
3794;DHT22;1912;51.358;12.282;2022-12-18T15:26:00;-5.00;1.00
3794;DHT22;1912;51.358;12.282;2022-12-18T15:28:44;-4.90;1.00
3794;DHT22;1912;51.358;12.282;2022-12-18T15:33:45;-5.00;1.00
3794;DHT22;1912;51.358;12.282;2022-12-18T15:36:26;-5.00;1.00
3794;DHT22;1912;51.358;12.282;2022-12-18T15:38:53;-5.00;1.00
3794;DHT22;1912;51.358;12.282;2022-12-18T15:41:21;-5.10;1.00
3794;DHT22;1912;51.358;12.282;2022-12-18T15:43:48;-5.10;1.00
3794;DHT22;1912;51.358;12.282;2022-12-18T15:46:18;-5.10;1.00
3794;DHT22;1912;51.358;12.282;2022-12-18T15:48:47;-5.00;1.00
3794;DHT22;1912;51.358;12.282;2022-12-18T15:51:17;-5.10;1.00
3794;DHT22;1912;51.358;12.282;2022-12-18T15:53:46;-5.10;1.00
3794;DHT22;1912;51.358;12.282;2022-12-18T15:56:14;-5.20;1.00
3794;DHT22;1912;51.358;12.282;2022-12-18T15:58:59;-5.20;1.00
3794;DHT22;1912;51.358;12.282;2022-12-18T16:01:30;-5.20;1.00
3794;DHT22;1912;51.358;12.282;2022-12-18T16:03:59;-5.20;1.00
3794;DHT22;1912;51.358;12.282;2022-12-18T16:06:24;-5.30;1.00
3794;DHT22;1912;51.358;12.282;2022-12-18T16:08:50;-5.40;1.00
3794;DHT22;1912;51.358;12.282;2022-12-18T16:11:26;-5.40;1.00
3794;DHT22;1912;51.358;12.282;2022-12-18T16:16:44;-5.40;1.00
3794;DHT22;1912;51.358;12.282;2022-12-18T16:19:11;-5.30;1.00
3794;DHT22;1912;51.358;12.282;2022-12-18T16:21:37;-5.40;1.00
3794;DHT22;1912;51.358;12.282;2022-12-18T16:24:03;-5.40;1.00
3794;DHT22;1912;51.358;12.282;2022-12-18T16:26:29;-5.40;1.00
3794;DHT22;1912;51.358;12.282;2022-12-18T16:28:58;-5.50;1.00
3794;DHT22;1912;51.358;12.282;2022-12-18T16:31:23;-5.60;1.00
3794;DHT22;1912;51.358;12.282;2022-12-18T16:33:49;-5.50;1.00
3794;DHT22;1912;51.358;12.282;2022-12-18T16:36:15;-5.60;1.00
3794;DHT22;1912;51.358;12.282;2022-12-18T16:38:40;-5.60;1.00
3794;DHT22;1912;51.358;12.282;2022-12-18T16:41:18;-5.50;1.00
3794;DHT22;1912;51.358;12.282;2022-12-18T16:43:56;-5.50;1.00
3794;DHT22;1912;51.358;12.282;2022-12-18T16:46:22;-5.60;1.00
3794;DHT22;1912;51.358;12.282;2022-12-18T16:48:48;-5.50;1.00
3794;DHT22;1912;51.358;12.282;2022-12-18T16:51:13;-5.50;1.00
3794;DHT22;1912;51.358;12.282;2022-12-18T16:53:39;-5.60;1.00
3794;DHT22;1912;51.358;12.282;2022-12-18T16:56:05;-5.50;1.00
3794;DHT22;1912;51.358;12.282;2022-12-18T16:58:31;-5.60;1.00
3794;DHT22;1912;51.358;12.282;2022-12-18T17:00:57;-5.60;1.00
3794;DHT22;1912;51.358;12.282;2022-12-18T17:03:22;-5.70;1.00
3794;DHT22;1912;51.358;12.282;2022-12-18T17:05:48;-5.70;1.00
3794;DHT22;1912;51.358;12.282;2022-12-18T17:08:13;-5.70;1.00
3794;DHT22;1912;51.358;12.282;2022-12-18T17:10:39;-5.70;1.00
3794;DHT22;1912;51.358;12.282;2022-12-18T17:13:05;-5.60;1.00
3794;DHT22;1912;51.358;12.282;2022-12-18T17:15:34;-5.60;1.00
3794;DHT22;1912;51.358;12.282;2022-12-18T17:18:00;-5.60;1.00
3794;DHT22;1912;51.358;12.282;2022-12-18T17:20:26;-5.50;1.00
3794;DHT22;1912;51.358;12.282;2022-12-18T17:22:52;-5.50;1.00
3794;DHT22;1912;51.358;12.282;2022-12-18T17:25:17;-5.40;1.00
3794;DHT22;1912;51.358;12.282;2022-12-18T17:27:43;-5.40;1.00
3794;DHT22;1912;51.358;12.282;2022-12-18T17:30:09;-5.40;1.00
3794;DHT22;1912;51.358;12.282;2022-12-18T17:32:35;-5.30;1.00
3794;DHT22;1912;51.358;12.282;2022-12-18T17:35:01;-5.30;1.00
3794;DHT22;1912;51.358;12.282;2022-12-18T17:37:27;-5.30;1.00
3794;DHT22;1912;51.358;12.282;2022-12-18T17:39:52;-5.20;1.00
3794;DHT22;1912;51.358;12.282;2022-12-18T17:42:18;-5.20;1.00
3794;DHT22;1912;51.358;12.282;2022-12-18T17:44:44;-5.10;1.00
3794;DHT22;1912;51.358;12.282;2022-12-18T17:47:11;-5.10;1.00
3794;DHT22;1912;51.358;12.282;2022-12-18T17:49:37;-5.10;1.00
3794;DHT22;1912;51.358;12.282;2022-12-18T17:52:03;-5.10;1.00
3794;DHT22;1912;51.358;12.282;2022-12-18T17:54:29;-5.00;1.00
3794;DHT22;1912;51.358;12.282;2022-12-18T17:56:55;-5.00;1.00
3794;DHT22;1912;51.358;12.282;2022-12-18T17:59:21;-5.00;1.00
3794;DHT22;1912;51.358;12.282;2022-12-18T18:01:47;-5.00;1.00
3794;DHT22;1912;51.358;12.282;2022-12-18T18:04:13;-5.00;1.00
3794;DHT22;1912;51.358;12.282;2022-12-18T18:06:39;-5.00;1.00
3794;DHT22;1912;51.358;12.282;2022-12-18T18:09:06;-4.90;1.00
3794;DHT22;1912;51.358;12.282;2022-12-18T18:11:32;-4.90;1.00
3794;DHT22;1912;51.358;12.282;2022-12-18T18:14:18;-4.90;1.00
3794;DHT22;1912;51.358;12.282;2022-12-18T18:16:47;-4.90;1.00
3794;DHT22;1912;51.358;12.282;2022-12-18T18:19:17;-4.80;1.00
3794;DHT22;1912;51.358;12.282;2022-12-18T18:21:48;-4.80;1.00
3794;DHT22;1912;51.358;12.282;2022-12-18T18:24:17;-4.80;1.00
3794;DHT22;1912;51.358;12.282;2022-12-18T18:26:44;-4.80;1.00
3794;DHT22;1912;51.358;12.282;2022-12-18T18:29:15;-4.70;1.00
3794;DHT22;1912;51.358;12.282;2022-12-18T18:31:46;-4.70;1.00
3794;DHT22;1912;51.358;12.282;2022-12-18T18:34:17;-4.70;1.00
3794;DHT22;1912;51.358;12.282;2022-12-18T18:36:44;-4.70;1.00
3794;DHT22;1912;51.358;12.282;2022-12-18T18:39:11;-4.70;1.00
3794;DHT22;1912;51.358;12.282;2022-12-18T18:41:37;-4.70;1.00
3794;DHT22;1912;51.358;12.282;2022-12-18T18:44:02;-4.70;1.00
3794;DHT22;1912;51.358;12.282;2022-12-18T18:46:28;-4.70;1.00
3794;DHT22;1912;51.358;12.282;2022-12-18T18:48:54;-4.60;1.00
3794;DHT22;1912;51.358;12.282;2022-12-18T18:51:20;-4.60;1.00
3794;DHT22;1912;51.358;12.282;2022-12-18T18:53:49;-4.60;1.00
3794;DHT22;1912;51.358;12.282;2022-12-18T18:56:17;-4.60;1.00
3794;DHT22;1912;51.358;12.282;2022-12-18T18:58:47;-4.60;1.00
3794;DHT22;1912;51.358;12.282;2022-12-18T19:01:15;-4.50;1.00
3794;DHT22;1912;51.358;12.282;2022-12-18T19:03:43;-4.50;1.00
3794;DHT22;1912;51.358;12.282;2022-12-18T19:06:18;-4.40;1.00
3794;DHT22;1912;51.358;12.282;2022-12-18T19:08:45;-4.40;1.00
3794;DHT22;1912;51.358;12.282;2022-12-18T19:11:12;-4.40;1.00
3794;DHT22;1912;51.358;12.282;2022-12-18T19:13:58;-4.30;1.00
3794;DHT22;1912;51.358;12.282;2022-12-18T19:16:25;-4.30;1.00
3794;DHT22;1912;51.358;12.282;2022-12-18T19:18:53;-4.40;1.00
3794;DHT22;1912;51.358;12.282;2022-12-18T19:21:20;-4.40;1.00
3794;DHT22;1912;51.358;12.282;2022-12-18T19:23:46;-4.40;1.00
3794;DHT22;1912;51.358;12.282;2022-12-18T19:26:13;-4.30;1.00
3794;DHT22;1912;51.358;12.282;2022-12-18T19:28:39;-4.30;1.00
3794;DHT22;1912;51.358;12.282;2022-12-18T19:31:07;-4.30;1.00
3794;DHT22;1912;51.358;12.282;2022-12-18T19:33:37;-4.30;1.00
3794;DHT22;1912;51.358;12.282;2022-12-18T19:36:13;-4.20;1.00
3794;DHT22;1912;51.358;12.282;2022-12-18T19:38:48;-4.20;1.00
3794;DHT22;1912;51.358;12.282;2022-12-18T19:41:15;-4.30;1.00
3794;DHT22;1912;51.358;12.282;2022-12-18T19:43:42;-4.30;1.00
3794;DHT22;1912;51.358;12.282;2022-12-18T19:46:11;-4.30;1.00
3794;DHT22;1912;51.358;12.282;2022-12-18T19:48:38;-4.20;1.00
3794;DHT22;1912;51.358;12.282;2022-12-18T19:51:30;-4.20;1.00
3794;DHT22;1912;51.358;12.282;2022-12-18T19:53:56;-4.20;1.00
3794;DHT22;1912;51.358;12.282;2022-12-18T19:56:24;-4.20;1.00
3794;DHT22;1912;51.358;12.282;2022-12-18T19:58:51;-4.10;1.00
3794;DHT22;1912;51.358;12.282;2022-12-18T20:01:19;-4.10;1.00
3794;DHT22;1912;51.358;12.282;2022-12-18T20:03:46;-4.10;1.00
3794;DHT22;1912;51.358;12.282;2022-12-18T20:06:29;-4.10;1.00
3794;DHT22;1912;51.358;12.282;2022-12-18T20:09:03;-4.10;1.00
3794;DHT22;1912;51.358;12.282;2022-12-18T20:11:31;-4.20;1.00
3794;DHT22;1912;51.358;12.282;2022-12-18T20:13:58;-4.20;1.00
3794;DHT22;1912;51.358;12.282;2022-12-18T20:16:23;-4.30;1.00
3794;DHT22;1912;51.358;12.282;2022-12-18T20:18:49;-4.30;1.00
3794;DHT22;1912;51.358;12.282;2022-12-18T20:21:15;-4.20;1.00
3794;DHT22;1912;51.358;12.282;2022-12-18T20:23:41;-4.20;1.00
3794;DHT22;1912;51.358;12.282;2022-12-18T20:26:06;-4.30;1.00
3794;DHT22;1912;51.358;12.282;2022-12-18T20:28:32;-4.30;1.00
3794;DHT22;1912;51.358;12.282;2022-12-18T20:31:02;-4.20;1.00
3794;DHT22;1912;51.358;12.282;2022-12-18T20:33:30;-4.20;1.00
3794;DHT22;1912;51.358;12.282;2022-12-18T20:36:04;-4.10;1.00
3794;DHT22;1912;51.358;12.282;2022-12-18T20:38:33;-4.10;1.00
3794;DHT22;1912;51.358;12.282;2022-12-18T20:40:59;-4.10;1.00
3794;DHT22;1912;51.358;12.282;2022-12-18T20:43:27;-4.00;1.00
3794;DHT22;1912;51.358;12.282;2022-12-18T20:46:01;-4.00;1.00
3794;DHT22;1912;51.358;12.282;2022-12-18T20:48:31;-4.00;1.00
3794;DHT22;1912;51.358;12.282;2022-12-18T20:51:09;-4.00;1.00
3794;DHT22;1912;51.358;12.282;2022-12-18T20:53:36;-4.00;1.00
3794;DHT22;1912;51.358;12.282;2022-12-18T20:56:20;-4.00;1.00
3794;DHT22;1912;51.358;12.282;2022-12-18T20:58:48;-4.00;1.00
3794;DHT22;1912;51.358;12.282;2022-12-18T21:01:16;-4.00;1.00
3794;DHT22;1912;51.358;12.282;2022-12-18T21:03:44;-4.00;1.00
3794;DHT22;1912;51.358;12.282;2022-12-18T21:06:11;-3.90;1.00
3794;DHT22;1912;51.358;12.282;2022-12-18T21:08:38;-3.90;1.00
3794;DHT22;1912;51.358;12.282;2022-12-18T21:16:45;-4.00;1.00
3794;DHT22;1912;51.358;12.282;2022-12-18T21:19:13;-4.00;1.00
3794;DHT22;1912;51.358;12.282;2022-12-18T21:21:40;-4.00;1.00
3794;DHT22;1912;51.358;12.282;2022-12-18T21:24:07;-3.90;1.00
3794;DHT22;1912;51.358;12.282;2022-12-18T21:26:34;-3.80;1.00
3794;DHT22;1912;51.358;12.282;2022-12-18T21:29:03;-3.80;1.00
3794;DHT22;1912;51.358;12.282;2022-12-18T21:31:34;-3.70;1.00
3794;DHT22;1912;51.358;12.282;2022-12-18T21:34:01;-3.70;1.00
3794;DHT22;1912;51.358;12.282;2022-12-18T21:36:27;-3.70;1.00
3794;DHT22;1912;51.358;12.282;2022-12-18T21:38:54;-3.80;1.00
3794;DHT22;1912;51.358;12.282;2022-12-18T21:41:20;-3.80;1.00
3794;DHT22;1912;51.358;12.282;2022-12-18T21:44:06;-3.80;1.00
3794;DHT22;1912;51.358;12.282;2022-12-18T21:46:37;-3.70;1.00
3794;DHT22;1912;51.358;12.282;2022-12-18T21:49:06;-3.70;1.00
3794;DHT22;1912;51.358;12.282;2022-12-18T21:51:33;-3.70;1.00
3794;DHT22;1912;51.358;12.282;2022-12-18T21:54:00;-3.70;1.00
3794;DHT22;1912;51.358;12.282;2022-12-18T21:56:50;-3.60;1.00
3794;DHT22;1912;51.358;12.282;2022-12-18T21:59:24;-3.60;1.00
3794;DHT22;1912;51.358;12.282;2022-12-18T22:01:51;-3.50;1.00
3794;DHT22;1912;51.358;12.282;2022-12-18T22:04:20;-3.50;1.00
3794;DHT22;1912;51.358;12.282;2022-12-18T22:06:46;-3.40;1.00
3794;DHT22;1912;51.358;12.282;2022-12-18T22:09:15;-3.50;1.00
3794;DHT22;1912;51.358;12.282;2022-12-18T22:11:42;-3.40;1.00
3794;DHT22;1912;51.358;12.282;2022-12-18T22:14:08;-3.50;1.00
3794;DHT22;1912;51.358;12.282;2022-12-18T22:16:35;-3.40;1.00
3794;DHT22;1912;51.358;12.282;2022-12-18T22:19:00;-3.40;1.00
3794;DHT22;1912;51.358;12.282;2022-12-18T22:21:31;-3.40;1.00
3794;DHT22;1912;51.358;12.282;2022-12-18T22:24:00;-3.40;1.00
3794;DHT22;1912;51.358;12.282;2022-12-18T22:26:30;-3.40;1.00
3794;DHT22;1912;51.358;12.282;2022-12-18T22:28:57;-3.30;1.00
3794;DHT22;1912;51.358;12.282;2022-12-18T22:31:41;-3.40;1.00
3794;DHT22;1912;51.358;12.282;2022-12-18T22:34:07;-3.30;1.00
3794;DHT22;1912;51.358;12.282;2022-12-18T22:36:38;-3.30;1.00
3794;DHT22;1912;51.358;12.282;2022-12-18T22:39:15;-3.30;1.00
3794;DHT22;1912;51.358;12.282;2022-12-18T22:41:41;-3.30;1.00
3794;DHT22;1912;51.358;12.282;2022-12-18T22:44:07;-3.30;1.00
3794;DHT22;1912;51.358;12.282;2022-12-18T22:46:37;-3.30;1.00
3794;DHT22;1912;51.358;12.282;2022-12-18T22:49:05;-3.40;1.00
3794;DHT22;1912;51.358;12.282;2022-12-18T22:51:31;-3.40;1.00
3794;DHT22;1912;51.358;12.282;2022-12-18T22:53:57;-3.30;1.00
3794;DHT22;1912;51.358;12.282;2022-12-18T22:56:23;-3.30;1.00